Time;durP1;ratioP1;P1;durP2;ratioP2;P2;SDS_P1;SDS_P2;PMS_P1;PMS_P2;Temp;Humidity;BMP_temperature;BMP_pressure;BME280_temperature;BME280_humidity;BME280_pressure;Samples;Min_cycle;Max_cycle;Signal;HPM_P1;HPM_P2
2022/10/22 00:00:29;;;;;;;13.48;9.48;;;;;;;;;;5141803;27;20496;-69
2022/10/22 00:02:55;;;;;;;13.52;9.88;;;;;;;;;;5120040;27;20519;-69
2022/10/22 00:05:21;;;;;;;13.18;9.50;;;;;;;;;;5140341;27;20519;-69
2022/10/22 00:07:47;;;;;;;16.75;10.43;;;;;;;;;;5135229;27;20416;-69
2022/10/22 00:10:13;;;;;;;16.65;10.52;;;;;;;;;;5137501;27;20605;-70
2022/10/22 00:12:39;;;;;;;14.05;10.02;;;;;;;;;;5142958;27;20047;-69
2022/10/22 00:15:06;;;;;;;12.23;9.50;;;;;;;;;;5140202;27;20392;-69
2022/10/22 00:17:32;;;;;;;15.98;10.60;;;;;;;;;;5131636;27;20049;-70
2022/10/22 00:19:58;;;;;;;16.75;11.05;;;;;;;;;;5136472;27;20055;-69
2022/10/22 00:22:24;;;;;;;16.42;10.68;;;;;;;;;;5139669;27;20511;-70
2022/10/22 00:24:50;;;;;;;15.43;10.15;;;;;;;;;;5140337;27;20216;-69
2022/10/22 00:27:16;;;;;;;14.40;10.07;;;;;;;;;;5137940;27;20080;-69
2022/10/22 00:29:42;;;;;;;17.50;10.48;;;;;;;;;;5121381;27;20046;-69
2022/10/22 00:32:08;;;;;;;12.52;8.90;;;;;;;;;;5139493;27;20065;-69
2022/10/22 00:34:34;;;;;;;12.05;9.10;;;;;;;;;;5139262;27;20065;-69
2022/10/22 00:37:00;;;;;;;14.50;10.73;;;;;;;;;;5139828;27;20095;-69
2022/10/22 00:39:26;;;;;;;14.88;10.30;;;;;;;;;;5140438;27;20046;-69
2022/10/22 00:41:53;;;;;;;15.95;9.88;;;;;;;;;;5138604;27;20401;-69
2022/10/22 00:44:38;;;;;;;15.73;10.02;;;;;;;;;;5137638;27;20042;-69
2022/10/22 00:47:04;;;;;;;18.42;10.90;;;;;;;;;;5135534;27;20477;-70
2022/10/22 00:49:30;;;;;;;16.58;8.77;;;;;;;;;;5134315;27;20043;-69
2022/10/22 00:51:56;;;;;;;14.88;10.85;;;;;;;;;;5134526;27;20050;-70
2022/10/22 00:54:22;;;;;;;16.02;11.27;;;;;;;;;;5137976;27;20043;-70
2022/10/22 00:56:48;;;;;;;12.60;9.90;;;;;;;;;;5152438;27;20042;-70
2022/10/22 00:59:15;;;;;;;20.38;9.55;;;;;;;;;;5129559;27;20051;-69
2022/10/22 01:01:42;;;;;;;14.60;10.05;;;;;;;;;;5150788;27;20038;-69
2022/10/22 01:04:08;;;;;;;21.17;11.73;;;;;;;;;;5118760;27;20523;-69
2022/10/22 01:06:34;;;;;;;15.77;10.38;;;;;;;;;;5141614;27;20492;-69
2022/10/22 01:09:00;;;;;;;15.18;10.05;;;;;;;;;;5133434;27;20551;-69
2022/10/22 01:11:42;;;;;;;16.00;10.02;;;;;;;;;;5146699;27;20130;-69
2022/10/22 01:14:13;;;;;;;18.40;9.77;;;;;;;;;;5146787;27;20030;-69
2022/10/22 01:16:53;;;;;;;16.80;9.68;;;;;;;;;;5134653;27;20043;-69
2022/10/22 01:19:21;;;;;;;15.40;10.00;;;;;;;;;;5141476;27;20046;-70
2022/10/22 01:21:52;;;;;;;13.55;9.55;;;;;;;;;;5145635;27;20150;-69
2022/10/22 01:24:37;;;;;;;18.73;9.68;;;;;;;;;;5141133;27;20042;-70
2022/10/22 01:27:35;;;;;;;16.27;9.82;;;;;;;;;;5139974;27;20492;-70
2022/10/22 01:30:04;;;;;;;17.10;11.27;;;;;;;;;;5070505;28;20049;-69
2022/10/22 01:32:32;;;;;;;19.88;10.25;;;;;;;;;;5065013;28;20557;-69
2022/10/22 01:35:01;;;;;;;20.95;10.68;;;;;;;;;;5072360;28;20052;-69
2022/10/22 01:37:29;;;;;;;16.23;9.93;;;;;;;;;;5069736;28;20499;-70
2022/10/22 01:39:56;;;;;;;14.27;10.20;;;;;;;;;;5071473;28;20052;-70
2022/10/22 01:42:23;;;;;;;17.73;10.68;;;;;;;;;;5075002;28;20045;-69
2022/10/22 01:44:49;;;;;;;14.80;9.55;;;;;;;;;;5066732;28;20550;-69
2022/10/22 01:47:18;;;;;;;14.82;8.77;;;;;;;;;;5068965;28;20059;-69
2022/10/22 01:49:54;;;;;;;15.52;10.10;;;;;;;;;;5065569;28;20041;-69
2022/10/22 01:52:38;;;;;;;17.00;10.50;;;;;;;;;;5060957;28;20477;-69
2022/10/22 01:55:25;;;;;;;16.33;9.20;;;;;;;;;;5069634;28;20041;-69
2022/10/22 01:57:57;;;;;;;12.50;8.65;;;;;;;;;;5068020;28;20051;-70
2022/10/22 02:00:23;;;;;;;14.32;9.27;;;;;;;;;;5063130;28;20482;-70
2022/10/22 02:02:54;;;;;;;17.13;10.50;;;;;;;;;;5070144;28;20067;-69
2022/10/22 02:05:23;;;;;;;17.33;9.35;;;;;;;;;;5096751;27;20527;-70
2022/10/22 02:08:09;;;;;;;16.55;10.93;;;;;;;;;;5137414;27;20043;-70
2022/10/22 02:10:39;;;;;;;16.42;10.10;;;;;;;;;;5133786;27;20039;-69
2022/10/22 02:13:09;;;;;;;14.23;10.23;;;;;;;;;;5132094;27;20446;-69
2022/10/22 02:15:36;;;;;;;15.70;9.50;;;;;;;;;;5137652;27;20294;-69
2022/10/22 02:18:03;;;;;;;14.75;9.43;;;;;;;;;;5137464;27;20088;-69
2022/10/22 02:20:31;;;;;;;16.88;11.32;;;;;;;;;;5130531;27;20051;-70
2022/10/22 02:22:57;;;;;;;19.63;11.23;;;;;;;;;;5132845;27;20544;-69
2022/10/22 02:25:24;;;;;;;16.65;11.23;;;;;;;;;;5133070;27;20131;-69
2022/10/22 02:27:58;;;;;;;15.20;11.20;;;;;;;;;;5149392;27;20491;-70
2022/10/22 02:30:24;;;;;;;15.25;9.65;;;;;;;;;;5148895;27;20046;-70
2022/10/22 02:33:08;;;;;;;17.23;10.90;;;;;;;;;;5122015;28;20147;-69
2022/10/22 02:35:34;;;;;;;19.10;11.52;;;;;;;;;;5134098;27;20397;-69
2022/10/22 02:38:01;;;;;;;19.25;10.80;;;;;;;;;;5147823;27;20547;-69
2022/10/22 02:40:27;;;;;;;16.40;11.48;;;;;;;;;;5142118;27;20092;-70
2022/10/22 02:42:53;;;;;;;21.35;11.98;;;;;;;;;;5152841;27;20117;-69
2022/10/22 02:45:20;;;;;;;16.08;9.85;;;;;;;;;;5129436;27;20468;-69
2022/10/22 02:47:46;;;;;;;17.70;11.00;;;;;;;;;;5140409;27;20496;-69
2022/10/22 02:50:12;;;;;;;18.65;11.23;;;;;;;;;;5138978;27;21375;-69
2022/10/22 02:52:38;;;;;;;19.38;11.48;;;;;;;;;;5147376;27;20046;-69
2022/10/22 02:55:05;;;;;;;17.77;11.15;;;;;;;;;;5135549;27;20039;-70
2022/10/22 02:57:31;;;;;;;19.05;10.98;;;;;;;;;;5148471;27;20508;-69
2022/10/22 02:59:57;;;;;;;21.17;12.23;;;;;;;;;;5152786;27;20035;-69
2022/10/22 03:02:23;;;;;;;18.88;11.27;;;;;;;;;;5156216;27;20045;-69
2022/10/22 03:04:49;;;;;;;17.92;10.57;;;;;;;;;;5142793;27;20039;-69
2022/10/22 03:07:15;;;;;;;20.67;12.15;;;;;;;;;;5136564;27;20471;-69
2022/10/22 03:09:41;;;;;;;14.95;10.68;;;;;;;;;;5139211;27;20034;-69
2022/10/22 03:12:07;;;;;;;17.33;11.23;;;;;;;;;;5136597;27;20043;-70
2022/10/22 03:14:33;;;;;;;22.08;11.45;;;;;;;;;;5134923;27;20100;-70
2022/10/22 03:17:00;;;;;;;17.50;11.73;;;;;;;;;;5143336;27;20039;-69
2022/10/22 03:19:25;;;;;;;22.33;10.82;;;;;;;;;;5144203;27;20058;-69
2022/10/22 03:21:51;;;;;;;19.52;12.05;;;;;;;;;;5117215;27;20051;-69
2022/10/22 03:24:23;;;;;;;23.08;13.35;;;;;;;;;;5135508;27;20031;-69
2022/10/22 03:26:49;;;;;;;;;;;;;;;;;;5135127;27;20057;-70
2022/10/22 03:29:15;;;;;;;21.40;13.80;;;;;;;;;;5150824;27;20010;-69
2022/10/22 03:31:41;;;;;;;22.55;15.05;;;;;;;;;;5133642;27;20130;-70
2022/10/22 03:34:07;;;;;;;24.00;15.18;;;;;;;;;;5144900;27;20039;-69
2022/10/22 03:36:34;;;;;;;19.88;13.73;;;;;;;;;;5140382;27;20035;-69
2022/10/22 03:39:00;;;;;;;22.48;15.10;;;;;;;;;;5147249;27;20035;-69
2022/10/22 03:41:27;;;;;;;21.23;13.80;;;;;;;;;;5149444;27;20134;-70
2022/10/22 03:43:53;;;;;;;19.73;14.10;;;;;;;;;;5103288;27;20112;-69
2022/10/22 03:46:19;;;;;;;22.27;14.60;;;;;;;;;;5118634;27;20404;-69
2022/10/22 03:48:45;;;;;;;19.58;12.95;;;;;;;;;;5123981;27;20039;-69
2022/10/22 03:51:11;;;;;;;22.48;13.98;;;;;;;;;;5137963;27;20039;-70
2022/10/22 03:53:37;;;;;;;19.38;14.10;;;;;;;;;;5155452;27;20050;-70
2022/10/22 03:56:07;;;;;;;19.02;12.00;;;;;;;;;;5150646;27;20043;-69
2022/10/22 03:58:33;;;;;;;18.63;12.65;;;;;;;;;;5143934;27;20070;-70
2022/10/22 04:01:04;;;;;;;22.17;13.27;;;;;;;;;;5141444;27;20070;-70
2022/10/22 04:03:29;;;;;;;22.27;12.75;;;;;;;;;;5142983;27;20038;-69
2022/10/22 04:06:00;;;;;;;21.10;13.25;;;;;;;;;;5137383;27;20454;-69
2022/10/22 04:08:26;;;;;;;25.27;12.85;;;;;;;;;;5139716;27;20042;-69
2022/10/22 04:10:52;;;;;;;20.95;13.45;;;;;;;;;;5142518;27;20534;-70
2022/10/22 04:13:18;;;;;;;22.85;13.63;;;;;;;;;;5154169;27;20158;-70
2022/10/22 04:15:44;;;;;;;27.27;14.60;;;;;;;;;;5138994;27;20060;-70
2022/10/22 04:18:10;;;;;;;21.83;14.55;;;;;;;;;;5144661;27;20043;-69
2022/10/22 04:20:36;;;;;;;20.05;13.32;;;;;;;;;;5142770;27;20050;-69
2022/10/22 04:23:02;;;;;;;22.38;14.32;;;;;;;;;;5144844;27;20043;-69
2022/10/22 04:25:28;;;;;;;22.98;15.57;;;;;;;;;;5140097;27;20047;-69
2022/10/22 04:27:54;;;;;;;23.75;14.25;;;;;;;;;;5138972;27;20037;-70
2022/10/22 04:30:20;;;;;;;27.90;15.82;;;;;;;;;;5136972;27;20079;-69
2022/10/22 04:32:46;;;;;;;26.33;15.35;;;;;;;;;;5135850;27;21279;-69
2022/10/22 04:35:12;;;;;;;24.98;14.48;;;;;;;;;;5139716;27;20058;-69
2022/10/22 04:37:38;;;;;;;22.00;13.75;;;;;;;;;;5152391;27;20042;-69
2022/10/22 04:40:04;;;;;;;23.05;13.93;;;;;;;;;;5148678;27;20042;-70
2022/10/22 04:42:30;;;;;;;19.85;13.63;;;;;;;;;;5152665;27;20408;-69
2022/10/22 04:44:56;;;;;;;22.00;14.25;;;;;;;;;;5154290;27;20038;-69
2022/10/22 04:47:22;;;;;;;21.33;14.80;;;;;;;;;;5139160;27;20100;-69
2022/10/22 04:49:48;;;;;;;21.77;14.30;;;;;;;;;;5132215;27;20043;-69
2022/10/22 04:52:14;;;;;;;25.75;14.95;;;;;;;;;;5150536;27;20046;-69
2022/10/22 04:54:40;;;;;;;28.13;15.82;;;;;;;;;;5144831;27;20042;-69
2022/10/22 04:57:06;;;;;;;26.75;17.50;;;;;;;;;;5116207;27;20096;-69
2022/10/22 04:59:32;;;;;;;46.75;21.85;;;;;;;;;;5145110;27;20034;-69
2022/10/22 05:01:58;;;;;;;44.70;21.27;;;;;;;;;;5138753;27;20050;-69
2022/10/22 05:04:24;;;;;;;50.13;25.23;;;;;;;;;;5136862;27;20354;-69
2022/10/22 05:06:51;;;;;;;32.58;20.05;;;;;;;;;;5133689;27;20047;-69
2022/10/22 05:09:18;;;;;;;30.08;19.45;;;;;;;;;;5141144;27;20122;-70
2022/10/22 05:11:47;;;;;;;38.47;24.98;;;;;;;;;;5137983;27;20056;-69
2022/10/22 05:14:14;;;;;;;33.80;20.77;;;;;;;;;;5136853;27;20084;-69
2022/10/22 05:16:40;;;;;;;38.65;23.23;;;;;;;;;;5120943;27;20404;-69
2022/10/22 05:19:07;;;;;;;30.75;20.70;;;;;;;;;;5121673;27;20561;-69
2022/10/22 05:21:33;;;;;;;41.90;24.98;;;;;;;;;;5141306;27;20050;-70
2022/10/22 05:23:59;;;;;;;33.40;22.92;;;;;;;;;;5150602;27;20038;-70
2022/10/22 05:26:25;;;;;;;35.83;21.27;;;;;;;;;;5152676;27;20039;-69
2022/10/22 05:28:51;;;;;;;30.58;20.17;;;;;;;;;;5133922;27;20593;-69
2022/10/22 05:31:18;;;;;;;35.00;21.45;;;;;;;;;;5135094;27;20039;-69
2022/10/22 05:33:44;;;;;;;35.60;23.83;;;;;;;;;;5133267;27;20198;-69
2022/10/22 05:36:12;;;;;;;39.72;26.27;;;;;;;;;;5137599;27;20053;-69
2022/10/22 05:38:38;;;;;;;41.00;24.52;;;;;;;;;;5133021;27;20183;-69
2022/10/22 05:41:06;;;;;;;37.58;23.92;;;;;;;;;;5134890;27;20696;-69
2022/10/22 05:43:32;;;;;;;34.13;19.95;;;;;;;;;;5152612;27;20404;-69
2022/10/22 05:46:05;;;;;;;29.80;19.52;;;;;;;;;;5152317;27;20053;-69
2022/10/22 05:48:31;;;;;;;35.28;22.27;;;;;;;;;;5150544;27;20496;-69
2022/10/22 05:51:03;;;;;;;36.88;24.00;;;;;;;;;;5136162;27;20036;-70
2022/10/22 05:53:29;;;;;;;37.70;23.85;;;;;;;;;;5133338;27;20047;-69
2022/10/22 05:55:55;;;;;;;35.90;24.65;;;;;;;;;;5134621;27;20465;-69
2022/10/22 05:58:21;;;;;;;42.92;26.90;;;;;;;;;;5133869;28;20078;-70
2022/10/22 06:00:47;;;;;;;43.97;28.17;;;;;;;;;;5142899;27;20118;-69
2022/10/22 06:03:13;;;;;;;34.00;22.30;;;;;;;;;;5153400;27;20384;-69
2022/10/22 06:05:39;;;;;;;35.83;24.38;;;;;;;;;;5146250;27;20046;-69
2022/10/22 06:08:05;;;;;;;44.95;26.40;;;;;;;;;;5152019;27;20049;-69
2022/10/22 06:10:31;;;;;;;35.05;21.92;;;;;;;;;;5147739;27;20115;-69
2022/10/22 06:12:57;;;;;;;38.40;23.23;;;;;;;;;;5152550;27;20054;-69
2022/10/22 06:15:23;;;;;;;34.58;22.38;;;;;;;;;;5151674;27;20039;-69
2022/10/22 06:17:49;;;;;;;35.30;22.08;;;;;;;;;;5119765;27;20122;-69
2022/10/22 06:20:15;;;;;;;39.70;19.83;;;;;;;;;;5137969;27;20142;-69
2022/10/22 06:22:41;;;;;;;35.45;20.92;;;;;;;;;;5146428;27;20042;-69
2022/10/22 06:25:08;;;;;;;40.05;22.90;;;;;;;;;;5146780;27;20039;-69
2022/10/22 06:27:34;;;;;;;41.30;23.83;;;;;;;;;;5136423;27;20122;-69
2022/10/22 06:30:00;;;;;;;47.75;31.63;;;;;;;;;;5104722;27;20047;-69
2022/10/22 06:32:26;;;;;;;39.00;24.58;;;;;;;;;;5147074;27;20039;-69
2022/10/22 06:34:52;;;;;;;39.80;23.30;;;;;;;;;;5136462;27;20129;-69
2022/10/22 06:37:18;;;;;;;39.75;23.50;;;;;;;;;;5135301;27;20055;-69
2022/10/22 06:39:44;;;;;;;34.10;21.98;;;;;;;;;;5144235;27;20504;-69
2022/10/22 06:42:10;;;;;;;35.22;22.85;;;;;;;;;;5136370;27;20130;-69
2022/10/22 06:44:36;;;;;;;38.97;24.25;;;;;;;;;;5135853;27;20126;-70
2022/10/22 06:47:02;;;;;;;36.85;23.90;;;;;;;;;;5141164;27;20178;-70
2022/10/22 06:49:28;;;;;;;40.92;25.15;;;;;;;;;;5139028;27;20058;-70
2022/10/22 06:51:54;;;;;;;41.03;24.40;;;;;;;;;;5151800;27;20043;-70
2022/10/22 06:54:21;;;;;;;45.45;26.75;;;;;;;;;;5145636;27;20071;-70
2022/10/22 06:56:46;;;;;;;36.40;26.15;;;;;;;;;;5118697;27;20043;-70
2022/10/22 06:59:13;;;;;;;50.60;27.73;;;;;;;;;;5156807;27;20126;-70
2022/10/22 07:01:39;;;;;;;43.63;26.48;;;;;;;;;;5156637;27;20043;-70
2022/10/22 07:04:05;;;;;;;49.28;23.20;;;;;;;;;;5151166;27;20039;-70
2022/10/22 07:06:31;;;;;;;40.80;22.55;;;;;;;;;;5155849;27;20042;-70
2022/10/22 07:08:57;;;;;;;39.25;23.50;;;;;;;;;;5144353;27;20046;-70
2022/10/22 07:11:25;;;;;;;37.95;23.75;;;;;;;;;;5135617;27;20146;-70
2022/10/22 07:13:53;;;;;;;32.10;20.88;;;;;;;;;;5135666;27;20053;-70
2022/10/22 07:16:19;;;;;;;29.65;20.05;;;;;;;;;;5139336;27;20564;-70
2022/10/22 07:18:45;;;;;;;36.65;21.02;;;;;;;;;;5132427;27;20043;-70
2022/10/22 07:21:12;;;;;;;30.67;18.80;;;;;;;;;;5135280;27;20047;-70
2022/10/22 07:23:38;;;;;;;26.42;16.50;;;;;;;;;;5135133;27;20051;-70
2022/10/22 07:26:06;;;;;;;24.42;14.85;;;;;;;;;;5135415;27;20058;-69
2022/10/22 07:28:32;;;;;;;23.25;13.68;;;;;;;;;;5135374;27;20132;-70
2022/10/22 07:30:58;;;;;;;24.42;13.80;;;;;;;;;;5134894;27;20047;-70
2022/10/22 07:33:24;;;;;;;25.10;12.82;;;;;;;;;;5154155;27;20050;-70
2022/10/22 07:35:50;;;;;;;23.08;13.52;;;;;;;;;;5148281;27;20035;-70
2022/10/22 07:38:16;;;;;;;20.80;12.30;;;;;;;;;;5136609;27;20046;-70
2022/10/22 07:40:42;;;;;;;25.02;13.52;;;;;;;;;;5141187;27;20042;-70
2022/10/22 07:43:08;;;;;;;18.13;11.25;;;;;;;;;;5147680;27;20108;-70
2022/10/22 07:45:34;;;;;;;23.13;12.35;;;;;;;;;;5147680;27;20035;-70
2022/10/22 07:48:01;;;;;;;18.92;10.45;;;;;;;;;;5134698;27;20067;-70
2022/10/22 07:50:27;;;;;;;19.60;10.95;;;;;;;;;;5155832;27;20465;-70
2022/10/22 07:52:53;;;;;;;16.10;9.98;;;;;;;;;;5147749;27;21626;-70
2022/10/22 07:55:19;;;;;;;16.77;9.70;;;;;;;;;;5134905;27;20039;-70
2022/10/22 07:57:45;;;;;;;21.52;9.60;;;;;;;;;;5155401;27;20122;-70
2022/10/22 08:00:11;;;;;;;16.05;9.10;;;;;;;;;;5155609;27;20058;-70
2022/10/22 08:02:38;;;;;;;17.70;9.40;;;;;;;;;;5135019;27;20388;-69
2022/10/22 08:05:04;;;;;;;15.30;8.88;;;;;;;;;;5134841;27;20135;-69
2022/10/22 08:07:30;;;;;;;20.27;8.90;;;;;;;;;;5136445;27;20042;-69
2022/10/22 08:09:56;;;;;;;20.58;9.07;;;;;;;;;;5147142;27;20062;-70
2022/10/22 08:12:22;;;;;;;15.40;8.25;;;;;;;;;;5155370;27;20038;-70
2022/10/22 08:14:48;;;;;;;15.05;8.55;;;;;;;;;;5155377;27;20477;-70
2022/10/22 08:17:14;;;;;;;14.88;8.60;;;;;;;;;;5150647;27;20062;-68
2022/10/22 08:19:40;;;;;;;24.38;9.30;;;;;;;;;;5152219;27;20471;-70
2022/10/22 08:22:06;;;;;;;12.38;7.32;;;;;;;;;;5116729;27;20392;-70
2022/10/22 08:24:32;;;;;;;14.95;8.77;;;;;;;;;;5133712;27;20166;-69
2022/10/22 08:26:58;;;;;;;19.88;8.32;;;;;;;;;;5135181;27;20054;-70
2022/10/22 08:29:25;;;;;;;15.93;7.22;;;;;;;;;;5134329;27;20050;-69
2022/10/22 08:31:52;;;;;;;16.88;7.65;;;;;;;;;;5141028;27;20115;-69
2022/10/22 08:34:18;;;;;;;15.80;6.88;;;;;;;;;;5115199;27;20097;-70
2022/10/22 08:36:44;;;;;;;15.90;7.22;;;;;;;;;;5139186;27;20038;-69
2022/10/22 08:39:10;;;;;;;17.70;7.03;;;;;;;;;;5151534;27;20046;-69
2022/10/22 08:41:48;;;;;;;20.27;7.50;;;;;;;;;;5148231;27;20110;-69
2022/10/22 08:44:30;;;;;;;15.20;6.70;;;;;;;;;;5153179;27;20049;-69
2022/10/22 08:46:56;;;;;;;20.20;6.95;;;;;;;;;;5152389;27;20038;-69
2022/10/22 08:49:34;;;;;;;18.65;7.32;;;;;;;;;;5152204;27;20572;-69
2022/10/22 08:52:00;;;;;;;21.98;7.22;;;;;;;;;;5136130;27;20492;-69
2022/10/22 08:54:30;;;;;;;18.38;7.05;;;;;;;;;;5135992;27;20042;-69
2022/10/22 08:57:02;;;;;;;26.15;7.25;;;;;;;;;;5131715;27;20035;-70
2022/10/22 08:59:34;;;;;;;17.33;7.10;;;;;;;;;;5139035;27;20046;-71
2022/10/22 09:02:01;;;;;;;29.88;7.03;;;;;;;;;;5140958;27;20064;-69
2022/10/22 09:04:33;;;;;;;29.27;7.45;;;;;;;;;;5137882;27;20043;-70
2022/10/22 09:06:59;;;;;;;21.77;7.32;;;;;;;;;;5150285;27;20042;-70
2022/10/22 09:09:27;;;;;;;17.17;7.57;;;;;;;;;;5134255;27;20058;-69
2022/10/22 09:11:54;;;;;;;31.92;10.75;;;;;;;;;;5135630;27;20054;-69
2022/10/22 09:14:21;;;;;;;22.60;10.20;;;;;;;;;;5143841;27;20497;-69
2022/10/22 09:17:14;;;;;;;38.38;19.98;;;;;;;;;;5141088;27;20125;-70
2022/10/22 09:19:46;;;;;;;20.35;7.75;;;;;;;;;;5129237;27;20541;-69
2022/10/22 09:22:15;;;;;;;29.55;22.35;;;;;;;;;;5134432;27;20055;-71
2022/10/22 09:24:49;;;;;;;36.08;22.65;;;;;;;;;;5153607;27;20070;-71
2022/10/22 09:27:20;;;;;;;27.77;17.35;;;;;;;;;;5146071;27;20449;-72
2022/10/22 09:29:47;;;;;;;25.95;10.75;;;;;;;;;;5147095;27;20133;-71
2022/10/22 09:32:13;;;;;;;24.52;8.32;;;;;;;;;;5137434;27;20039;-71
2022/10/22 09:34:40;;;;;;;26.55;10.30;;;;;;;;;;5144422;27;20050;-71
2022/10/22 09:37:09;;;;;;;21.73;7.85;;;;;;;;;;5143394;27;20035;-71
2022/10/22 09:39:44;;;;;;;18.52;7.70;;;;;;;;;;5120774;28;20050;-71
2022/10/22 09:42:13;;;;;;;18.00;6.40;;;;;;;;;;5135671;27;20523;-71
2022/10/22 09:44:39;;;;;;;15.90;6.63;;;;;;;;;;5143334;27;20046;-71
2022/10/22 09:47:06;;;;;;;17.50;6.30;;;;;;;;;;5136768;27;20108;-70
2022/10/22 09:49:34;;;;;;;20.05;6.78;;;;;;;;;;5132263;27;20461;-72
2022/10/22 09:52:00;;;;;;;19.02;6.43;;;;;;;;;;5134428;27;20035;-72
2022/10/22 09:54:26;;;;;;;18.77;5.97;;;;;;;;;;5153690;27;20057;-72
2022/10/22 09:56:57;;;;;;;13.82;5.63;;;;;;;;;;5151184;27;20043;-72
2022/10/22 09:59:30;;;;;;;16.80;5.70;;;;;;;;;;5140146;27;20050;-72
2022/10/22 10:02:10;;;;;;;15.40;5.60;;;;;;;;;;5144213;27;20069;-71
2022/10/22 10:04:39;;;;;;;15.93;5.45;;;;;;;;;;5136498;27;20058;-72
2022/10/22 10:07:14;;;;;;;14.02;5.30;;;;;;;;;;5137627;27;21072;-73
2022/10/22 10:09:40;;;;;;;16.25;4.90;;;;;;;;;;5146656;27;20108;-72
2022/10/22 10:12:19;;;;;;;13.70;4.38;;;;;;;;;;5120824;27;20039;-71
2022/10/22 10:15:12;;;;;;;15.93;4.88;;;;;;;;;;5136424;27;20043;-71
2022/10/22 10:17:47;;;;;;;12.70;5.00;;;;;;;;;;5136134;27;20053;-73
2022/10/22 10:20:13;;;;;;;11.88;4.50;;;;;;;;;;5136355;27;20051;-72
2022/10/22 10:22:57;;;;;;;14.95;4.78;;;;;;;;;;5142792;27;20043;-74
2022/10/22 10:25:42;;;;;;;12.40;4.30;;;;;;;;;;5137776;27;20087;-73
2022/10/22 10:28:19;;;;;;;14.85;4.97;;;;;;;;;;5137099;27;20118;-72
2022/10/22 10:30:50;;;;;;;15.18;4.32;;;;;;;;;;5139417;27;20126;-72
2022/10/22 10:33:40;;;;;;;14.10;4.25;;;;;;;;;;5136005;27;20050;-73
2022/10/22 10:36:14;;;;;;;14.73;4.60;;;;;;;;;;5109753;27;20434;-72
2022/10/22 10:38:40;;;;;;;13.02;5.03;;;;;;;;;;5138307;27;20566;-71
2022/10/22 10:41:23;;;;;;;12.68;4.30;;;;;;;;;;5138896;27;20031;-71
2022/10/22 10:44:01;;;;;;;17.23;5.53;;;;;;;;;;5136043;27;20044;-71
2022/10/22 10:46:35;;;;;;;12.50;4.30;;;;;;;;;;5135755;27;20054;-71
2022/10/22 10:49:08;;;;;;;15.23;4.57;;;;;;;;;;5137529;27;20452;-72
2022/10/22 10:51:40;;;;;;;13.63;4.68;;;;;;;;;;5135850;27;20525;-71
2022/10/22 10:54:09;;;;;;;16.98;4.65;;;;;;;;;;5134718;27;20489;-71
2022/10/22 10:56:47;;;;;;;16.15;5.00;;;;;;;;;;5146200;27;20071;-72
2022/10/22 10:59:32;;;;;;;19.20;4.95;;;;;;;;;;5144918;27;20053;-71
2022/10/22 11:02:22;;;;;;;17.95;4.65;;;;;;;;;;5138862;27;20114;-73
2022/10/22 11:05:08;;;;;;;15.40;4.43;;;;;;;;;;5116997;27;20520;-72
2022/10/22 11:07:40;;;;;;;16.23;4.82;;;;;;;;;;5146838;27;20133;-72
2022/10/22 11:10:35;;;;;;;15.05;4.50;;;;;;;;;;5135279;27;20511;-72
2022/10/22 11:13:03;;;;;;;14.20;4.65;;;;;;;;;;5118987;27;20386;-71
2022/10/22 11:15:32;;;;;;;13.18;4.32;;;;;;;;;;5140751;27;20403;-71
2022/10/22 11:18:06;;;;;;;13.50;4.22;;;;;;;;;;5135395;27;20131;-71
2022/10/22 11:20:47;;;;;;;15.10;3.95;;;;;;;;;;5137652;27;20051;-71
2022/10/22 11:23:13;;;;;;;;;;;;;;;;;;5137434;27;20042;-71
2022/10/22 11:25:44;;;;;;;13.10;4.70;;;;;;;;;;5135096;27;19919;-72
2022/10/22 11:28:19;;;;;;;13.82;4.80;;;;;;;;;;5138983;27;20077;-72
2022/10/22 11:30:48;;;;;;;16.17;4.57;;;;;;;;;;5138778;27;20147;-74
2022/10/22 11:33:18;;;;;;;64.97;7.90;;;;;;;;;;5145432;27;20385;-74
2022/10/22 11:35:46;;;;;;;106.25;12.10;;;;;;;;;;5140373;27;20035;-71
2022/10/22 11:38:13;;;;;;;31.25;6.45;;;;;;;;;;5139562;27;20056;-72
2022/10/22 11:40:58;;;;;;;21.77;5.93;;;;;;;;;;5139509;27;20042;-71
2022/10/22 11:43:27;;;;;;;23.73;6.35;;;;;;;;;;5143110;27;20412;-70
2022/10/22 11:46:00;;;;;;;21.88;6.03;;;;;;;;;;5133937;27;20042;-73
2022/10/22 11:48:28;;;;;;;20.25;5.40;;;;;;;;;;5134869;27;20051;-72
2022/10/22 11:51:00;;;;;;;13.65;5.15;;;;;;;;;;5139709;27;20415;-73
2022/10/22 11:53:34;;;;;;;18.60;5.88;;;;;;;;;;5143681;27;20087;-71
2022/10/22 11:56:21;;;;;;;16.15;5.55;;;;;;;;;;5149527;27;20114;-74
2022/10/22 11:58:48;;;;;;;16.63;5.60;;;;;;;;;;5133828;27;20088;-73
2022/10/22 12:01:16;;;;;;;16.20;5.93;;;;;;;;;;5133362;27;20043;-71
2022/10/22 12:03:44;;;;;;;18.55;6.00;;;;;;;;;;5139453;27;20350;-71
2022/10/22 12:06:11;;;;;;;49.70;8.18;;;;;;;;;;5146036;27;20039;-72
2022/10/22 12:08:43;;;;;;;52.78;7.72;;;;;;;;;;5139457;27;20488;-71
2022/10/22 12:11:21;;;;;;;46.33;7.80;;;;;;;;;;5135210;27;20388;-71
2022/10/22 12:13:51;;;;;;;35.42;6.88;;;;;;;;;;5143659;27;20039;-71
2022/10/22 12:16:17;;;;;;;33.05;7.03;;;;;;;;;;5149379;27;20133;-71
2022/10/22 12:18:44;;;;;;;43.20;7.93;;;;;;;;;;5147194;27;20055;-72
2022/10/22 12:21:12;;;;;;;24.15;6.65;;;;;;;;;;5138093;27;20051;-71
2022/10/22 12:23:39;;;;;;;54.97;9.32;;;;;;;;;;5133484;27;20051;-71
2022/10/22 12:26:05;;;;;;;22.90;6.95;;;;;;;;;;5127390;27;20407;-72
2022/10/22 12:28:40;;;;;;;18.55;7.43;;;;;;;;;;5146563;27;20050;-74
2022/10/22 12:31:14;;;;;;;28.83;7.10;;;;;;;;;;5142479;27;20055;-72
2022/10/22 12:33:40;;;;;;;27.55;6.82;;;;;;;;;;5142398;27;20047;-72
2022/10/22 12:36:06;;;;;;;24.23;7.20;;;;;;;;;;5119792;27;20084;-74
2022/10/22 12:38:32;;;;;;;17.27;5.90;;;;;;;;;;5151589;27;20046;-71
2022/10/22 12:40:58;;;;;;;18.38;5.50;;;;;;;;;;5147833;27;20059;-72
2022/10/22 12:43:26;;;;;;;18.98;5.63;;;;;;;;;;5143938;27;20035;-72
2022/10/22 12:45:52;;;;;;;18.20;5.63;;;;;;;;;;5133964;27;20043;-73
2022/10/22 12:48:21;;;;;;;17.90;5.50;;;;;;;;;;5138931;27;20054;-73
2022/10/22 12:51:13;;;;;;;44.47;6.82;;;;;;;;;;5124723;27;20034;-72
2022/10/22 12:53:43;;;;;;;201.32;12.00;;;;;;;;;;5141919;27;20050;-73
2022/10/22 12:56:29;;;;;;;35.13;5.72;;;;;;;;;;5116587;27;20051;-73
2022/10/22 12:58:57;;;;;;;22.85;4.88;;;;;;;;;;5135980;27;20401;-73
2022/10/22 13:01:25;;;;;;;32.58;5.93;;;;;;;;;;5145936;27;20438;-73
2022/10/22 13:04:03;;;;;;;13.80;4.22;;;;;;;;;;5145860;27;20031;-73
2022/10/22 13:06:29;;;;;;;15.18;3.90;;;;;;;;;;5124852;27;20065;-73
2022/10/22 13:09:01;;;;;;;14.40;4.53;;;;;;;;;;5143547;27;20665;-73
2022/10/22 13:11:31;;;;;;;12.70;4.32;;;;;;;;;;5121037;27;20392;-74
2022/10/22 13:14:04;;;;;;;12.52;4.50;;;;;;;;;;5140044;27;20050;-73
2022/10/22 13:16:31;;;;;;;14.68;4.60;;;;;;;;;;5135313;27;20055;-73
2022/10/22 13:18:58;;;;;;;15.63;4.53;;;;;;;;;;5140772;27;20054;-73
2022/10/22 13:21:39;;;;;;;14.27;4.57;;;;;;;;;;5139739;27;20106;-73
2022/10/22 13:24:05;;;;;;;;;;;;;;;;;;5133570;27;20099;-73
2022/10/22 13:26:33;;;;;;;16.02;4.25;;;;;;;;;;5137908;27;19923;-73
2022/10/22 13:29:00;;;;;;;13.55;4.43;;;;;;;;;;5142349;27;20066;-73
2022/10/22 13:31:32;;;;;;;13.60;4.30;;;;;;;;;;5132953;27;20047;-73
2022/10/22 13:34:00;;;;;;;14.80;3.88;;;;;;;;;;5132402;27;20058;-73
2022/10/22 13:36:26;;;;;;;13.77;3.63;;;;;;;;;;5149348;27;20496;-73
2022/10/22 13:38:52;;;;;;;12.18;3.50;;;;;;;;;;5149473;27;20085;-73
2022/10/22 13:41:19;;;;;;;12.02;3.80;;;;;;;;;;5132777;27;20066;-73
2022/10/22 13:43:45;;;;;;;12.80;3.55;;;;;;;;;;5132966;27;20091;-73
2022/10/22 13:46:11;;;;;;;9.55;2.85;;;;;;;;;;5133453;27;20450;-73
2022/10/22 13:48:38;;;;;;;14.00;3.85;;;;;;;;;;5144265;27;20051;-73
2022/10/22 13:51:07;;;;;;;15.00;3.90;;;;;;;;;;5148088;27;20036;-73
2022/10/22 13:53:33;;;;;;;14.75;4.07;;;;;;;;;;5132413;27;20100;-73
2022/10/22 13:55:59;;;;;;;17.17;3.75;;;;;;;;;;5137581;27;20055;-73
2022/10/22 13:58:25;;;;;;;16.25;4.75;;;;;;;;;;5148032;27;20395;-73
2022/10/22 14:00:54;;;;;;;12.82;4.85;;;;;;;;;;5150238;27;20038;-73
2022/10/22 14:03:22;;;;;;;10.55;4.53;;;;;;;;;;5135695;27;20046;-73
2022/10/22 14:05:48;;;;;;;14.10;5.28;;;;;;;;;;5121111;27;20039;-73
2022/10/22 14:08:21;;;;;;;15.52;4.80;;;;;;;;;;5133324;27;20044;-73
2022/10/22 14:10:47;;;;;;;11.05;3.58;;;;;;;;;;5143191;27;20118;-73
2022/10/22 14:13:14;;;;;;;11.90;4.07;;;;;;;;;;5142470;27;20043;-73
2022/10/22 14:15:41;;;;;;;11.52;3.70;;;;;;;;;;5132903;27;20054;-73
2022/10/22 14:18:08;;;;;;;9.88;3.75;;;;;;;;;;5139220;27;20047;-73
2022/10/22 14:20:35;;;;;;;13.85;4.53;;;;;;;;;;5138027;27;20056;-73
2022/10/22 14:23:05;;;;;;;11.73;4.70;;;;;;;;;;5132897;27;20982;-73
2022/10/22 14:25:31;;;;;;;15.18;5.15;;;;;;;;;;5145382;27;20051;-72
2022/10/22 14:27:57;;;;;;;12.82;4.63;;;;;;;;;;5137030;27;20043;-72
2022/10/22 14:30:24;;;;;;;18.38;4.25;;;;;;;;;;5139032;27;20086;-72
2022/10/22 14:32:51;;;;;;;12.85;3.28;;;;;;;;;;5145646;27;20549;-72